Lawn, Canada
Current Conditions -  °F | °C
As of 12:00 AM on Sunday 21 Dec 2014 (Local Time) from LFVP Reporting Station
Broken Clouds Broken Clouds  
Wind Chill: 20°   Ceiling: 3300
Heat Index: 32°   Visibility: 6mi
Dew Point: 21°   Wind: 18mph
Humidity: 64%   Direction: 50°NE
Pressure: 30.24"   Gusts: NA
Location:  46.93°N, 55.55°W
Report Text: LFVP 210300Z 05016KT 9999 BKN033 00/M06 Q1024 NOSIG
Loading
Personal Weather Stations






























Interactive Weather Map New forecast layout! Learn more

10-Day Weather Forecast

Advertisements
Track Severe Weather on mobile